Stolt Effort — ZCSP6 — position and weather

sailwx.info

Track history (hours):
 
Tides and Currents Weather Stations Pressure Air Temp Water Temp Dewpoint Dewpoint Depression Visibility Wind Speed Wind Dir Waves Ship Positions

Stolt Effort

Last reported at 2016-Sep-18 15:32 UTC. Time now 2016-Sep-30 15:15 UTC.
Position N 26°52' W 128°43'.
Warning: this ship's position is 11 days out of date.

Length 176 m; draft 12.2 m.

Type: Ship (hazmat cat A). MMSI: 319445000.

Date/timePositionNaut miles runAvg speedWind from/ knotsBaromVisibWave heightAir tempDewpointWater temp
2016-Sep-18 15:32N 26°52' W 128°43'8315.6
2016-Sep-18 10:12N 26°28' W 127°14'1216.0
2016-Sep-18 09:27N 26°24' W 127°01'  
2016-Sep-09 18:28N 08°50' W 079°30'0 0.0
2016-Sep-09 17:06N 08°50' W 079°30'0 0.0
2016-Sep-09 11:09N 08°50' W 079°30'0 0.0
2016-Sep-09 08:09N 08°50' W 079°30'0 0.0
2016-Sep-09 07:33N 08°50' W 079°30'0 0.0
2016-Sep-09 06:33N 08°50' W 079°30'0 0.0
2016-Sep-09 05:30N 08°50' W 079°30'0 0.0
2016-Sep-09 03:33N 08°50' W 079°30'4 2.9
2016-Sep-09 02:20N 08°53' W 079°31'6 7.2
2016-Sep-09 01:32N 08°58' W 079°34'2 2.3
2016-Sep-09 00:31N 08°60' W 079°36'1 1.3
2016-Sep-08 23:32N 09°01' W 079°36'1 0.7
2016-Sep-08 22:31N 09°01' W 079°37'1 1.2
2016-Sep-08 21:32N 09°02' W 079°38'6 5.2
2016-Sep-08 20:21N 09°07' W 079°42'4 4.7
2016-Sep-08 19:33N 09°07' W 079°46'7 7.0
2016-Sep-08 18:33N 09°11' W 079°51'5 5.0
2016-Sep-08 17:33N 09°14' W 079°56'0 0.0
2016-Sep-08 16:06N 09°14' W 079°56'  
Track history (hours):
 
Tides and Currents Weather Stations Pressure Air Temp Water Temp Dewpoint Dewpoint Depression Visibility Wind Speed Wind Dir Waves Ship Positions

Stolt Effort

Last reported at 2016-Sep-18 15:32 UTC. Time now 2016-Sep-30 15:15 UTC.
Position N 26°52' W 128°43'.
Warning: this ship's position is 11 days out of date.

Length 176 m; draft 12.2 m.

Type: Ship (hazmat cat A). MMSI: 319445000.

Date/timePositionNaut miles runAvg speedWind from/ knotsBaromVisibWave heightAir tempDewpointWater temp
2016-Sep-18 15:32N 26°52' W 128°43'8315.6
2016-Sep-18 10:12N 26°28' W 127°14'1216.0
2016-Sep-18 09:27N 26°24' W 127°01'  
2016-Sep-09 18:28N 08°50' W 079°30'0 0.0
2016-Sep-09 17:06N 08°50' W 079°30'0 0.0
2016-Sep-09 11:09N 08°50' W 079°30'0 0.0
2016-Sep-09 08:09N 08°50' W 079°30'0 0.0
2016-Sep-09 07:33N 08°50' W 079°30'0 0.0
2016-Sep-09 06:33N 08°50' W 079°30'0 0.0
2016-Sep-09 05:30N 08°50' W 079°30'0 0.0
2016-Sep-09 03:33N 08°50' W 079°30'4 2.9
2016-Sep-09 02:20N 08°53' W 079°31'6 7.2
2016-Sep-09 01:32N 08°58' W 079°34'2 2.3
2016-Sep-09 00:31N 08°60' W 079°36'1 1.3
2016-Sep-08 23:32N 09°01' W 079°36'1 0.7
2016-Sep-08 22:31N 09°01' W 079°37'1 1.2
2016-Sep-08 21:32N 09°02' W 079°38'6 5.2
2016-Sep-08 20:21N 09°07' W 079°42'4 4.7
2016-Sep-08 19:33N 09°07' W 079°46'7 7.0
2016-Sep-08 18:33N 09°11' W 079°51'5 5.0
2016-Sep-08 17:33N 09°14' W 079°56'0 0.0
2016-Sep-08 16:06N 09°14' W 079°56'  

Dump ship's entire track history